createdAt,value
2022-10-05T00:01:28.895Z,98132.34
2022-10-05T00:04:08.493Z,98133.91
2022-10-05T00:06:37.728Z,98133.25
2022-10-05T00:09:19.380Z,98139.28
2022-10-05T00:11:49.818Z,98141.69
2022-10-05T00:14:29.949Z,98148.50
2022-10-05T00:16:59.592Z,98145.56
2022-10-05T00:19:40.947Z,98147.13
2022-10-05T00:22:30.176Z,98152.47
2022-10-05T00:25:04.718Z,98159.94
2022-10-05T00:27:37.713Z,98157.28
2022-10-05T00:30:16.323Z,98154.38
2022-10-05T00:32:46.592Z,98159.81
2022-10-05T00:35:18.090Z,98161.69
2022-10-05T00:37:52.245Z,98162.13
2022-10-05T00:40:58.769Z,98172.88
2022-10-05T00:44:21.617Z,98168.59
2022-10-05T00:46:59.612Z,98182.19
2022-10-05T00:49:55.906Z,98172.44
2022-10-05T00:52:34.233Z,98176.63
2022-10-05T00:55:47.682Z,98177.41
2022-10-05T00:58:22.849Z,98176.34
2022-10-05T01:01:29.516Z,98183.69
2022-10-05T01:04:28.992Z,98184.34
2022-10-05T01:07:35.178Z,98188.47
2022-10-05T01:10:40.221Z,98187.47
2022-10-05T01:13:34.245Z,98192.44
2022-10-05T01:16:10.897Z,98197.03
2022-10-05T01:19:03.162Z,98195.53
2022-10-05T01:21:44.951Z,98199.13
2022-10-05T01:24:34.875Z,98205.00
2022-10-05T01:27:04.285Z,98207.19
2022-10-05T01:29:42.731Z,98198.72
2022-10-05T01:32:43.772Z,98200.94
2022-10-05T01:35:27.865Z,98201.69
2022-10-05T01:38:00.839Z,98203.22
2022-10-05T01:40:46.177Z,98202.44
2022-10-05T01:43:31.299Z,98200.59
2022-10-05T01:46:13.203Z,98205.44
2022-10-05T01:49:14.297Z,98201.00
2022-10-05T01:52:01.702Z,98203.63
2022-10-05T01:54:56.867Z,98205.63
2022-10-05T01:57:45.492Z,98207.56
2022-10-05T02:00:22.277Z,98213.25
2022-10-05T02:03:03.132Z,98208.31
2022-10-05T02:05:42.686Z,98213.28
2022-10-05T02:08:34.003Z,98211.03
2022-10-05T02:11:10.230Z,98209.34
2022-10-05T02:13:54.577Z,98214.19
2022-10-05T02:16:45.597Z,98216.59
2022-10-05T02:19:36.889Z,98216.94
2022-10-05T02:22:13.331Z,98215.69
2022-10-05T02:24:52.510Z,98218.22
2022-10-05T02:27:28.855Z,98215.06
2022-10-05T02:30:04.102Z,98210.84
2022-10-05T02:32:50.977Z,98212.78
2022-10-05T02:35:23.045Z,98215.94
2022-10-05T02:38:23.156Z,98217.19
2022-10-05T02:41:05.454Z,98229.91
2022-10-05T02:44:05.272Z,98223.66
2022-10-05T02:46:59.044Z,98230.22
2022-10-05T02:49:55.580Z,98227.25
2022-10-05T02:52:46.134Z,98231.19
2022-10-05T02:55:32.201Z,98236.00
2022-10-05T02:58:24.049Z,98228.16
2022-10-05T03:01:08.558Z,98234.03
2022-10-05T03:03:57.405Z,98229.16
2022-10-05T03:06:36.947Z,98238.25
2022-10-05T03:09:09.509Z,98237.16
2022-10-05T03:12:07.243Z,98242.38
2022-10-05T03:14:48.849Z,98246.25
2022-10-05T03:17:23.740Z,98243.88
2022-10-05T03:20:24.096Z,98250.88
2022-10-05T03:23:02.814Z,98250.91
2022-10-05T03:25:57.563Z,98249.63
2022-10-05T03:28:46.421Z,98249.75
2022-10-05T03:31:55.384Z,98246.19
2022-10-05T03:34:38.528Z,98252.06
2022-10-05T03:37:26.039Z,98251.84
2022-10-05T03:40:04.835Z,98253.66
2022-10-05T03:42:43.191Z,98255.47
2022-10-05T03:45:30.859Z,98255.09
2022-10-05T03:48:03.206Z,98249.50
2022-10-05T03:50:46.127Z,98250.44
2022-10-05T03:53:29.021Z,98246.13
2022-10-05T03:56:06.157Z,98249.22
2022-10-05T03:58:45.529Z,98248.28
2022-10-05T04:01:21.053Z,98256.06
2022-10-05T04:04:00.906Z,98257.63
2022-10-05T04:06:42.075Z,98256.19
2022-10-05T04:09:20.710Z,98260.97
2022-10-05T04:11:52.408Z,98260.59
2022-10-05T04:14:47.350Z,98267.88
2022-10-05T04:17:23.477Z,98257.28
2022-10-05T04:20:07.289Z,98259.44
2022-10-05T04:22:42.175Z,98256.19
2022-10-05T04:25:18.565Z,98261.63
2022-10-05T04:28:04.913Z,98266.66
2022-10-05T04:30:39.612Z,98259.03
2022-10-05T04:33:14.864Z,98261.50
2022-10-05T04:36:23.527Z,98265.94
2022-10-05T04:39:25.507Z,98264.72
2022-10-05T04:42:08.437Z,98261.72
2022-10-05T04:45:26.055Z,98267.53
2022-10-05T04:48:23.760Z,98272.91
2022-10-05T04:50:57.346Z,98267.63
2022-10-05T04:53:37.331Z,98269.38
2022-10-05T04:56:20.807Z,98274.44
2022-10-05T04:59:30.755Z,98271.16
2022-10-05T05:02:18.390Z,98272.88
2022-10-05T05:05:16.912Z,98269.63
2022-10-05T05:08:03.450Z,98268.16
2022-10-05T05:10:55.081Z,98271.13
2022-10-05T05:13:45.316Z,98271.69
2022-10-05T05:16:37.209Z,98261.09
2022-10-05T05:19:24.243Z,98257.66
2022-10-05T05:22:09.083Z,98259.19
2022-10-05T05:24:58.406Z,98256.13
2022-10-05T05:27:50.618Z,98247.91
2022-10-05T05:30:52.407Z,98244.28
2022-10-05T05:33:28.390Z,98243.72
2022-10-05T05:36:36.168Z,98249.59
2022-10-05T05:39:06.025Z,98251.13
2022-10-05T05:42:00.101Z,98244.47
2022-10-05T05:44:42.721Z,98243.91
2022-10-05T05:47:22.130Z,98240.13
2022-10-05T05:50:19.715Z,98230.06
2022-10-05T05:53:25.186Z,98233.16
2022-10-05T05:56:12.738Z,98223.25
2022-10-05T05:58:48.642Z,98219.34
2022-10-05T06:01:34.179Z,98208.28
2022-10-05T06:04:18.465Z,98205.72
2022-10-05T06:06:52.524Z,98204.50
2022-10-05T06:09:34.273Z,98197.22
2022-10-05T06:12:35.954Z,98200.25
2022-10-05T06:15:13.198Z,98192.72
2022-10-05T06:17:51.185Z,98196.50
2022-10-05T06:20:30.744Z,98192.25
2022-10-05T06:23:04.862Z,98184.38
2022-10-05T06:25:51.126Z,98187.72
2022-10-05T06:28:20.795Z,98188.44
2022-10-05T06:31:22.539Z,98182.47
2022-10-05T06:34:05.131Z,98178.16
2022-10-05T06:36:54.398Z,98175.88
2022-10-05T06:39:45.140Z,98172.81
2022-10-05T06:42:39.087Z,98173.03
2022-10-05T06:46:00.236Z,98167.06
2022-10-05T06:48:59.728Z,98166.09
2022-10-05T06:51:53.090Z,98155.09
2022-10-05T06:55:09.534Z,98150.66
2022-10-05T06:58:08.879Z,98141.91
2022-10-05T07:00:58.724Z,98142.63
2022-10-05T07:03:42.890Z,98130.97
2022-10-05T07:06:21.870Z,98135.91
2022-10-05T07:09:19.211Z,98121.28
2022-10-05T07:12:00.876Z,98129.53
2022-10-05T07:15:02.968Z,98120.22
2022-10-05T07:17:46.682Z,98104.84
2022-10-05T07:20:26.805Z,98109.72
2022-10-05T07:23:08.388Z,98105.19
2022-10-05T07:25:47.743Z,98095.97
2022-10-05T07:28:26.651Z,98092.16
2022-10-05T07:31:23.157Z,98088.66
2022-10-05T07:34:23.448Z,98082.38
2022-10-05T07:37:14.384Z,98087.28
2022-10-05T07:40:06.784Z,98076.38
2022-10-05T07:42:59.671Z,98077.88
2022-10-05T07:45:33.205Z,98066.78
2022-10-05T07:48:23.901Z,98056.94
2022-10-05T07:51:19.559Z,98069.84
2022-10-05T07:54:09.093Z,98057.78
2022-10-05T07:56:45.278Z,98049.47
2022-10-05T07:59:47.028Z,98048.56
2022-10-05T08:02:45.576Z,98044.47
2022-10-05T08:05:37.069Z,98041.34
2022-10-05T08:08:34.035Z,98041.72
2022-10-05T08:11:18.667Z,98037.03
2022-10-05T08:13:51.062Z,98028.56
2022-10-05T08:16:20.802Z,98024.59
2022-10-05T08:19:07.934Z,98023.34
2022-10-05T08:21:42.941Z,98013.84
2022-10-05T08:24:45.885Z,98013.06
2022-10-05T08:27:24.860Z,98007.91
2022-10-05T08:30:12.021Z,97997.13
2022-10-05T08:33:04.073Z,98001.28
2022-10-05T08:35:45.017Z,97989.03
2022-10-05T08:38:26.390Z,97983.44
2022-10-05T08:41:37.763Z,97981.63
2022-10-05T08:44:43.036Z,97976.25
2022-10-05T08:47:22.920Z,97980.97
2022-10-05T08:50:19.323Z,97972.47
2022-10-05T08:53:32.056Z,97967.66
2022-10-05T08:56:00.804Z,97974.50
2022-10-05T08:59:17.762Z,97970.34
2022-10-05T09:02:11.618Z,97964.88
2022-10-05T09:04:49.912Z,97963.16
2022-10-05T09:07:23.418Z,97947.88
2022-10-05T09:10:20.332Z,97953.00
2022-10-05T09:13:12.619Z,97950.53
2022-10-05T09:16:06.100Z,97953.50
2022-10-05T09:18:53.804Z,97949.34
2022-10-05T09:21:43.677Z,97949.16
2022-10-05T09:24:28.005Z,97947.03
2022-10-05T09:27:17.883Z,97938.53
2022-10-05T09:30:14.363Z,97936.97
2022-10-05T09:33:10.615Z,97933.78
2022-10-05T09:36:01.506Z,97934.09
2022-10-05T09:39:06.945Z,97926.13
2022-10-05T09:42:04.888Z,97927.78
2022-10-05T09:44:43.296Z,97921.81
2022-10-05T09:47:46.275Z,97919.47
2022-10-05T09:50:42.035Z,97912.50
2022-10-05T09:53:41.532Z,97920.28
2022-10-05T09:56:20.184Z,97908.66
2022-10-05T09:59:04.837Z,97914.06
2022-10-05T10:01:55.628Z,97900.94
2022-10-05T10:05:15.673Z,97904.97
2022-10-05T10:08:05.826Z,97901.94
2022-10-05T10:10:59.317Z,97903.31
2022-10-05T10:14:01.294Z,97899.38
2022-10-05T10:16:45.122Z,97899.41
2022-10-05T10:19:49.168Z,97900.44
2022-10-05T10:22:28.588Z,97893.44
2022-10-05T10:25:25.518Z,97907.19
2022-10-05T10:28:14.611Z,97901.00
2022-10-05T10:31:02.161Z,97900.28
2022-10-05T10:33:58.352Z,97890.06
2022-10-05T10:37:07.394Z,97891.13
2022-10-05T10:40:00.421Z,97889.63
2022-10-05T10:42:44.481Z,97882.81
2022-10-05T10:45:50.937Z,97881.00
2022-10-05T10:48:32.644Z,97882.13
2022-10-05T10:51:10.592Z,97883.66
2022-10-05T10:54:23.843Z,97869.84
2022-10-05T10:57:16.418Z,97881.00
2022-10-05T11:00:07.737Z,97874.56
2022-10-05T11:02:51.399Z,97870.94
2022-10-05T11:05:39.518Z,97871.84
2022-10-05T11:08:26.776Z,97873.88
2022-10-05T11:11:24.186Z,97874.50
2022-10-05T11:14:12.838Z,97867.34
2022-10-05T11:17:00.238Z,97865.91
2022-10-05T11:20:03.747Z,97862.50
2022-10-05T11:23:19.582Z,97862.19
2022-10-05T11:26:06.623Z,97866.66
2022-10-05T11:28:38.719Z,97865.69
2022-10-05T11:31:27.241Z,97859.31
2022-10-05T11:33:56.435Z,97863.59
2022-10-05T11:37:02.098Z,97858.66
2022-10-05T11:39:40.074Z,97872.06
2022-10-05T11:42:28.730Z,97867.84
2022-10-05T11:45:27.115Z,97867.59
2022-10-05T11:48:02.278Z,97870.41
2022-10-05T11:50:59.393Z,97863.53
2022-10-05T11:53:42.927Z,97871.78
2022-10-05T11:59:06.194Z,97867.66
2022-10-05T12:01:51.299Z,97867.72
2022-10-05T12:05:09.125Z,97870.31
2022-10-05T12:07:56.125Z,97865.72
2022-10-05T12:10:44.686Z,97861.13
2022-10-05T12:13:45.516Z,97868.00
2022-10-05T12:16:33.815Z,97865.53
2022-10-05T12:19:29.362Z,97866.69
2022-10-05T12:22:18.986Z,97868.41
2022-10-05T12:25:06.440Z,97873.56
2022-10-05T12:27:47.207Z,97871.72
2022-10-05T12:30:33.972Z,97876.50
2022-10-05T12:33:25.093Z,97876.78
2022-10-05T12:36:07.095Z,97868.19
2022-10-05T12:38:39.764Z,97870.31
2022-10-05T12:41:30.461Z,97877.72
2022-10-05T12:44:14.475Z,97878.16
2022-10-05T12:47:07.467Z,97873.97
2022-10-05T12:49:57.234Z,97876.75
2022-10-05T12:52:45.731Z,97879.81
2022-10-05T12:55:31.918Z,97884.44
2022-10-05T12:58:14.212Z,97881.94
2022-10-05T13:00:58.291Z,97886.06
2022-10-05T13:03:39.113Z,97885.94
2022-10-05T13:06:32.719Z,97885.09
2022-10-05T13:09:14.633Z,97884.66
2022-10-05T13:11:52.995Z,97880.75
2022-10-05T13:15:05.644Z,97883.78
2022-10-05T13:17:37.733Z,97888.50
2022-10-05T13:20:29.132Z,97883.19
2022-10-05T13:23:09.119Z,97886.97
2022-10-05T13:25:47.173Z,97897.22
2022-10-05T13:28:27.454Z,97897.66
2022-10-05T13:31:08.514Z,97895.13
2022-10-05T13:34:09.920Z,97895.28
2022-10-05T13:36:45.807Z,97905.91
2022-10-05T13:39:40.479Z,97907.63
2022-10-05T13:42:27.991Z,97903.81
2022-10-05T13:45:22.671Z,97903.84
2022-10-05T13:48:04.838Z,97915.66
2022-10-05T13:50:39.833Z,97914.50
2022-10-05T13:53:50.391Z,97921.19
2022-10-05T13:56:50.180Z,97921.16
2022-10-05T13:59:34.413Z,97919.63
2022-10-05T14:02:11.247Z,97919.16
2022-10-05T14:04:48.110Z,97925.56
2022-10-05T14:07:35.377Z,97932.22
2022-10-05T14:10:13.452Z,97930.03
2022-10-05T14:12:46.802Z,97942.53
2022-10-05T14:15:34.145Z,97943.47
2022-10-05T14:18:29.636Z,97950.72
2022-10-05T14:21:17.414Z,97950.22
2022-10-05T14:23:47.106Z,97956.53
2022-10-05T14:26:34.447Z,97955.50
2022-10-05T14:29:05.425Z,97957.13
2022-10-05T14:31:38.814Z,97964.06
2022-10-05T14:34:27.261Z,97956.84
2022-10-05T14:37:03.205Z,97965.31
2022-10-05T14:39:36.469Z,97967.03
2022-10-05T14:42:28.139Z,97975.06
2022-10-05T14:45:13.118Z,97975.06
2022-10-05T14:47:54.796Z,97983.41
2022-10-05T14:50:30.808Z,97988.59
2022-10-05T14:53:26.251Z,97982.75
2022-10-05T14:55:58.404Z,97990.06
2022-10-05T14:58:40.596Z,97987.19
2022-10-05T15:01:15.707Z,97993.41
2022-10-05T15:04:03.078Z,97991.53
2022-10-05T15:06:40.237Z,98003.78
2022-10-05T15:09:24.029Z,98006.16
2022-10-05T15:11:57.712Z,98003.88
2022-10-05T15:14:48.632Z,98005.66
2022-10-05T15:17:45.548Z,98002.31
2022-10-05T15:20:28.364Z,98004.72
2022-10-05T15:23:00.416Z,98000.09
2022-10-05T15:25:50.033Z,98001.03
2022-10-05T15:28:25.238Z,98006.72
2022-10-05T15:31:03.314Z,98009.81
2022-10-05T15:33:39.634Z,98014.38
2022-10-05T15:36:27.484Z,98003.09
2022-10-05T15:39:27.992Z,98002.41
2022-10-05T15:42:49.418Z,98009.97
2022-10-05T15:45:38.667Z,98000.25
2022-10-05T15:48:40.463Z,98005.78
2022-10-05T15:51:31.106Z,98006.25
2022-10-05T15:54:27.563Z,98006.59
2022-10-05T15:57:26.489Z,98005.44
2022-10-05T16:00:15.993Z,98008.19
2022-10-05T16:03:24.258Z,98015.34
2022-10-05T16:06:21.639Z,98022.16
2022-10-05T16:08:56.577Z,98018.34
2022-10-05T16:11:44.188Z,98011.50
2022-10-05T16:14:13.725Z,98020.16
2022-10-05T16:17:18.867Z,98022.78
2022-10-05T16:20:10.704Z,98025.41
2022-10-05T16:23:11.394Z,98026.38
2022-10-05T16:26:05.020Z,98029.03
2022-10-05T16:28:54.420Z,98022.16
2022-10-05T16:31:38.393Z,98031.16
2022-10-05T16:34:32.178Z,98025.19
2022-10-05T16:37:16.151Z,98030.91
2022-10-05T16:40:01.128Z,98033.19
2022-10-05T16:42:57.766Z,98032.97
2022-10-05T16:45:59.401Z,98031.88
2022-10-05T16:48:53.136Z,98034.75
2022-10-05T16:51:28.278Z,98036.53
2022-10-05T16:54:21.800Z,98034.75
2022-10-05T16:57:04.419Z,98032.34
2022-10-05T17:00:04.733Z,98039.91
2022-10-05T17:02:47.205Z,98044.84
2022-10-05T17:05:42.244Z,98034.03
2022-10-05T17:08:32.998Z,98034.88
2022-10-05T17:11:22.174Z,98035.13
2022-10-05T17:14:17.099Z,98039.56
2022-10-05T17:16:52.263Z,98034.53
2022-10-05T17:19:36.210Z,98038.47
2022-10-05T17:22:22.609Z,98037.03
2022-10-05T17:25:00.615Z,98040.66
2022-10-05T17:27:33.673Z,98038.59
2022-10-05T17:30:29.601Z,98032.13
2022-10-05T17:33:15.185Z,98042.06
2022-10-05T17:35:55.394Z,98036.53
2022-10-05T17:38:45.105Z,98038.84
2022-10-05T17:41:17.201Z,98041.34
2022-10-05T17:44:04.927Z,98038.00
2022-10-05T17:46:48.537Z,98035.84
2022-10-05T17:49:35.827Z,98033.44
2022-10-05T17:52:40.700Z,98038.47
2022-10-05T17:55:39.461Z,98035.34
2022-10-05T17:58:29.883Z,98040.03
2022-10-05T18:00:58.998Z,98032.34
2022-10-05T18:03:51.123Z,98028.53
2022-10-05T18:06:34.196Z,98029.00
2022-10-05T18:09:34.967Z,98028.28
2022-10-05T18:12:19.098Z,98035.34
2022-10-05T18:15:09.094Z,98034.44
2022-10-05T18:17:51.949Z,98030.31
2022-10-05T18:20:29.785Z,98037.91
2022-10-05T18:23:07.103Z,98033.56
2022-10-05T18:26:06.142Z,98043.25
2022-10-05T18:28:55.736Z,98038.91
2022-10-05T18:31:26.849Z,98037.94
2022-10-05T18:33:55.911Z,98041.19
2022-10-05T18:36:47.973Z,98037.94
2022-10-05T18:39:36.388Z,98040.81
2022-10-05T18:42:34.082Z,98040.31
2022-10-05T18:45:23.071Z,98045.09
2022-10-05T18:48:18.139Z,98045.94
2022-10-05T18:51:02.336Z,98041.81
2022-10-05T18:53:45.387Z,98036.03
2022-10-05T18:56:22.331Z,98039.91
2022-10-05T18:58:56.915Z,98041.59
2022-10-05T19:01:51.555Z,98041.53
2022-10-05T19:04:24.035Z,98043.59
2022-10-05T19:06:58.085Z,98046.50
2022-10-05T19:09:51.390Z,98041.81
2022-10-05T19:12:41.772Z,98046.47
2022-10-05T19:15:24.426Z,98051.09
2022-10-05T19:18:19.514Z,98046.41
2022-10-05T19:21:19.078Z,98051.72
2022-10-05T19:24:06.057Z,98043.66
2022-10-05T19:27:07.793Z,98047.63
2022-10-05T19:30:26.192Z,98042.38
2022-10-05T19:33:16.772Z,98047.84
2022-10-05T19:35:59.504Z,98051.50
2022-10-05T19:39:06.614Z,98049.22
2022-10-05T19:41:45.738Z,98058.16
2022-10-05T19:44:18.957Z,98051.16
2022-10-05T19:47:02.688Z,98066.34
2022-10-05T19:49:59.862Z,98058.38
2022-10-05T19:52:41.100Z,98054.25
2022-10-05T19:55:15.908Z,98061.63
2022-10-05T19:57:50.086Z,98068.59
2022-10-05T20:00:27.961Z,98054.91
2022-10-05T20:03:24.604Z,98066.22
2022-10-05T20:05:55.055Z,98063.16
2022-10-05T20:08:27.678Z,98057.25
2022-10-05T20:11:11.069Z,98066.66
2022-10-05T20:13:46.780Z,98065.09
2022-10-05T20:16:37.061Z,98060.56
2022-10-05T20:19:45.260Z,98064.00
2022-10-05T20:22:36.923Z,98063.31
2022-10-05T20:25:19.881Z,98057.88
2022-10-05T20:27:56.482Z,98056.59
2022-10-05T20:30:32.295Z,98054.56
2022-10-05T20:33:11.397Z,98052.44
2022-10-05T20:35:40.726Z,98058.53
2022-10-05T20:38:09.670Z,98055.16
2022-10-05T20:40:40.027Z,98055.78
2022-10-05T20:43:09.185Z,98059.59
2022-10-05T20:45:44.251Z,98063.16
2022-10-05T20:48:15.302Z,98051.19
2022-10-05T20:50:44.737Z,98056.88
2022-10-05T20:53:14.171Z,98061.72
2022-10-05T20:55:44.160Z,98057.09
2022-10-05T20:58:13.124Z,98052.03
2022-10-05T21:01:00.568Z,98048.34
2022-10-05T21:03:29.793Z,98046.13
2022-10-05T21:05:58.640Z,98046.56
2022-10-05T21:08:28.261Z,98058.31
2022-10-05T21:10:57.425Z,98042.97
2022-10-05T21:13:27.630Z,98042.97
2022-10-05T21:15:57.479Z,98047.59
2022-10-05T21:18:26.898Z,98047.78
2022-10-05T21:20:59.952Z,98037.25
2022-10-05T21:23:33.608Z,98036.34
2022-10-05T21:26:03.347Z,98041.53
2022-10-05T21:28:34.771Z,98038.88
2022-10-05T21:31:04.088Z,98041.91
2022-10-05T21:33:33.602Z,98041.72
2022-10-05T21:36:03.015Z,98039.63
2022-10-05T21:38:31.993Z,98047.63
2022-10-05T21:41:01.328Z,98043.84
2022-10-05T21:43:30.481Z,98043.66
2022-10-05T21:46:00.158Z,98044.50
2022-10-05T21:48:31.357Z,98043.13
2022-10-05T21:51:02.239Z,98038.41
2022-10-05T21:53:40.048Z,98044.91
2022-10-05T21:56:15.347Z,98044.91
2022-10-05T21:58:46.818Z,98046.16
2022-10-05T22:01:20.144Z,98043.75
2022-10-05T22:03:51.586Z,98047.84
2022-10-05T22:06:20.632Z,98050.38
2022-10-05T22:08:50.093Z,98046.16
2022-10-05T22:11:19.835Z,98047.00
2022-10-05T22:13:51.412Z,98047.19
2022-10-05T22:16:22.833Z,98047.41
2022-10-05T22:18:54.602Z,98052.81
2022-10-05T22:21:23.723Z,98054.63
2022-10-05T22:23:52.683Z,98056.41
2022-10-05T22:26:24.480Z,98058.59
2022-10-05T22:28:57.359Z,98052.53
2022-10-05T22:31:26.860Z,98058.28
2022-10-05T22:33:55.876Z,98057.00
2022-10-05T22:36:25.207Z,98063.66
2022-10-05T22:38:54.219Z,98067.75
2022-10-05T22:41:23.318Z,98070.16
2022-10-05T22:43:53.023Z,98067.66
2022-10-05T22:46:23.529Z,98070.06
2022-10-05T22:48:52.765Z,98075.03
2022-10-05T22:51:21.780Z,98075.13
2022-10-05T22:53:51.166Z,98073.22
2022-10-05T22:56:20.323Z,98079.94
2022-10-05T22:58:49.537Z,98075.63
2022-10-05T23:01:20.757Z,98080.03
2022-10-05T23:03:49.842Z,98078.66
2022-10-05T23:06:21.382Z,98088.47
2022-10-05T23:08:50.640Z,98083.19
2022-10-05T23:11:28.056Z,98087.84
2022-10-05T23:13:57.978Z,98090.22
2022-10-05T23:16:29.189Z,98094.13
2022-10-05T23:18:59.418Z,98102.81
2022-10-05T23:21:31.913Z,98105.69
2022-10-05T23:24:01.462Z,98112.19
2022-10-05T23:26:31.739Z,98103.78
2022-10-05T23:29:01.134Z,98122.25
2022-10-05T23:31:34.580Z,98116.78
2022-10-05T23:34:03.774Z,98120.03
2022-10-05T23:36:33.350Z,98124.38
2022-10-05T23:39:02.684Z,98124.13
2022-10-05T23:41:31.691Z,98123.94
2022-10-05T23:44:00.829Z,98126.00
2022-10-05T23:46:29.803Z,98132.88
2022-10-05T23:48:58.976Z,98133.38
2022-10-05T23:51:27.884Z,98136.72
2022-10-05T23:53:57.151Z,98137.84
2022-10-05T23:56:26.381Z,98145.94
2022-10-05T23:58:55.597Z,98144.75
